Time;durP1;ratioP1;P1;durP2;ratioP2;P2;SDS_P1;SDS_P2;PMS_P1;PMS_P2;Temp;Humidity;BMP_temperature;BMP_pressure;BME280_temperature;BME280_humidity;BME280_pressure;Samples;Min_cycle;Max_cycle;Signal;HPM_P1;HPM_P2
2021/10/22 00:01:43;;;;;;;5.38;3.88;;;;;;;;;;4915967;29;20040;-37
2021/10/22 00:04:08;;;;;;;4.68;3.05;;;;;;;;;;4916041;29;20111;-37
2021/10/22 00:06:34;;;;;;;6.45;3.78;;;;;;;;;;4915945;29;20480;-37
2021/10/22 00:08:59;;;;;;;5.75;3.92;;;;;;;;;;4915776;29;20064;-37
2021/10/22 00:11:25;;;;;;;8.13;4.00;;;;;;;;;;4915943;29;20068;-37
2021/10/22 00:13:50;;;;;;;10.60;4.60;;;;;;;;;;4914592;29;20025;-37
2021/10/22 00:16:16;;;;;;;5.55;3.40;;;;;;;;;;4915724;29;20039;-37
2021/10/22 00:18:42;;;;;;;5.38;4.18;;;;;;;;;;4914718;29;20425;-37
2021/10/22 00:21:08;;;;;;;7.20;4.38;;;;;;;;;;4915706;29;20032;-37
2021/10/22 00:23:33;;;;;;;7.30;4.78;;;;;;;;;;4915709;29;20056;-37
2021/10/22 00:25:58;;;;;;;9.63;4.70;;;;;;;;;;4915487;29;20040;-37
2021/10/22 00:28:24;;;;;;;10.73;4.28;;;;;;;;;;4915836;29;20036;-37
2021/10/22 00:30:49;;;;;;;10.63;3.42;;;;;;;;;;4915493;29;20084;-37
2021/10/22 00:33:15;;;;;;;7.35;4.15;;;;;;;;;;4915347;29;20059;-37
2021/10/22 00:35:41;;;;;;;6.63;4.53;;;;;;;;;;4915483;29;20032;-37
2021/10/22 00:38:07;;;;;;;4.82;3.55;;;;;;;;;;4915315;29;20039;-37
2021/10/22 00:40:33;;;;;;;6.07;3.60;;;;;;;;;;4929999;29;20032;-38
2021/10/22 00:42:59;;;;;;;10.85;4.07;;;;;;;;;;4915465;29;20392;-37
2021/10/22 00:45:24;;;;;;;10.32;5.03;;;;;;;;;;4915306;29;20152;-37
2021/10/22 00:47:50;;;;;;;4.65;3.70;;;;;;;;;;4915494;29;20119;-36
2021/10/22 00:50:15;;;;;;;5.50;3.75;;;;;;;;;;4915375;29;20439;-37
2021/10/22 00:52:41;;;;;;;4.63;3.75;;;;;;;;;;4915074;29;20032;-38
2021/10/22 00:55:10;;;;;;;6.70;4.15;;;;;;;;;;4915385;29;20024;-37
2021/10/22 00:57:36;;;;;;;6.10;4.30;;;;;;;;;;4915059;29;20028;-37
2021/10/22 01:00:01;;;;;;;9.48;4.55;;;;;;;;;;4915064;29;20055;-36
2021/10/22 01:02:27;;;;;;;5.93;4.28;;;;;;;;;;4915204;29;20024;-37
2021/10/22 01:04:53;;;;;;;6.30;3.95;;;;;;;;;;4915028;29;20187;-37
2021/10/22 01:07:19;;;;;;;6.82;4.20;;;;;;;;;;4915143;29;20032;-37
2021/10/22 01:09:45;;;;;;;5.93;4.25;;;;;;;;;;4915055;29;20111;-37
2021/10/22 01:12:11;;;;;;;8.23;5.00;;;;;;;;;;4915154;29;20024;-37
2021/10/22 01:14:37;;;;;;;9.52;4.30;;;;;;;;;;4915102;29;20111;-37
2021/10/22 01:17:03;;;;;;;5.93;4.43;;;;;;;;;;4915142;29;20537;-37
2021/10/22 01:19:29;;;;;;;6.10;4.13;;;;;;;;;;4913942;29;20059;-37
2021/10/22 01:21:54;;;;;;;7.47;4.53;;;;;;;;;;4914847;29;20745;-37
2021/10/22 01:24:21;;;;;;;6.72;4.05;;;;;;;;;;4915010;29;20028;-37
2021/10/22 01:26:47;;;;;;;8.70;4.13;;;;;;;;;;4914911;29;20064;-37
2021/10/22 01:29:13;;;;;;;6.28;3.78;;;;;;;;;;4914894;29;20596;-37
2021/10/22 01:31:38;;;;;;;5.80;3.47;;;;;;;;;;4914952;29;20040;-37
2021/10/22 01:34:04;;;;;;;7.35;3.72;;;;;;;;;;4914831;29;20074;-37
2021/10/22 01:36:32;;;;;;;3.58;3.28;;;;;;;;;;4914710;29;20028;-37
2021/10/22 01:38:58;;;;;;;11.70;3.63;;;;;;;;;;4914828;29;20032;-37
2021/10/22 01:41:23;;;;;;;7.97;2.97;;;;;;;;;;4914817;29;20031;-36
2021/10/22 01:43:50;;;;;;;5.30;3.60;;;;;;;;;;4914757;29;20028;-36
2021/10/22 01:46:15;;;;;;;4.72;3.13;;;;;;;;;;4915047;29;20164;-37
2021/10/22 01:48:41;;;;;;;7.78;3.50;;;;;;;;;;4914637;29;20103;-37
2021/10/22 01:51:06;;;;;;;5.43;3.53;;;;;;;;;;4916986;29;20399;-37
2021/10/22 01:53:31;;;;;;;5.82;4.32;;;;;;;;;;4918296;29;20040;-37
2021/10/22 01:55:57;;;;;;;10.30;3.38;;;;;;;;;;4916898;29;20039;-37
2021/10/22 01:58:23;;;;;;;5.47;3.53;;;;;;;;;;4918521;29;20130;-37
2021/10/22 02:00:49;;;;;;;7.43;3.83;;;;;;;;;;4918145;29;20483;-37
2021/10/22 02:03:15;;;;;;;6.10;2.95;;;;;;;;;;4918472;29;20387;-37
2021/10/22 02:05:40;;;;;;;4.97;3.03;;;;;;;;;;4918057;29;20016;-37
2021/10/22 02:08:06;;;;;;;7.80;4.18;;;;;;;;;;4918161;29;20039;-37
2021/10/22 02:10:31;;;;;;;5.78;3.42;;;;;;;;;;4918049;29;20032;-36
2021/10/22 02:12:57;;;;;;;6.13;3.22;;;;;;;;;;4932452;29;20048;-37
2021/10/22 02:15:23;;;;;;;8.05;3.30;;;;;;;;;;4918095;29;20020;-37
2021/10/22 02:17:49;;;;;;;4.43;2.40;;;;;;;;;;4917718;29;20081;-37
2021/10/22 02:20:15;;;;;;;6.70;2.92;;;;;;;;;;4917946;29;20024;-37
2021/10/22 02:22:43;;;;;;;6.18;3.05;;;;;;;;;;4918121;29;20095;-37
2021/10/22 02:25:09;;;;;;;7.07;4.05;;;;;;;;;;4916480;29;20020;-36
2021/10/22 02:27:35;;;;;;;5.00;3.67;;;;;;;;;;4917781;29;20445;-37
2021/10/22 02:30:00;;;;;;;8.63;3.53;;;;;;;;;;4917718;29;20016;-37
2021/10/22 02:32:26;;;;;;;4.22;2.78;;;;;;;;;;4917604;29;20054;-37
2021/10/22 02:34:51;;;;;;;5.68;3.55;;;;;;;;;;4917488;29;20464;-37
2021/10/22 02:37:17;;;;;;;4.78;3.20;;;;;;;;;;4917411;29;20036;-37
2021/10/22 02:39:42;;;;;;;6.82;3.20;;;;;;;;;;4917417;29;20530;-37
2021/10/22 02:42:08;;;;;;;7.55;3.40;;;;;;;;;;4917803;29;20066;-37
2021/10/22 02:44:34;;;;;;;5.53;3.78;;;;;;;;;;4917494;29;20024;-37
2021/10/22 02:46:59;;;;;;;4.03;2.90;;;;;;;;;;4917265;29;20036;-37
2021/10/22 02:49:26;;;;;;;4.75;3.58;;;;;;;;;;4917396;29;20019;-38
2021/10/22 02:51:54;;;;;;;5.38;3.30;;;;;;;;;;4917298;29;20032;-37
2021/10/22 02:54:20;;;;;;;6.70;2.72;;;;;;;;;;4917571;29;20016;-37
2021/10/22 02:56:45;;;;;;;6.28;3.08;;;;;;;;;;4917283;29;20036;-37
2021/10/22 02:59:12;;;;;;;6.50;2.95;;;;;;;;;;4931841;29;20483;-37
2021/10/22 03:01:38;;;;;;;5.72;3.42;;;;;;;;;;4916007;29;20035;-37
2021/10/22 03:04:03;;;;;;;4.15;3.45;;;;;;;;;;4917282;29;20032;-37
2021/10/22 03:06:28;;;;;;;4.72;2.60;;;;;;;;;;4917187;29;20086;-37
2021/10/22 03:08:54;;;;;;;3.88;3.08;;;;;;;;;;4916892;29;20043;-37
2021/10/22 03:11:19;;;;;;;4.25;3.30;;;;;;;;;;4931696;29;20039;-37
2021/10/22 03:13:45;;;;;;;6.45;2.80;;;;;;;;;;4916923;29;20031;-37
2021/10/22 03:16:10;;;;;;;3.58;3.13;;;;;;;;;;4917091;29;20115;-37
2021/10/22 03:18:36;;;;;;;8.90;3.80;;;;;;;;;;4916881;29;20035;-37
2021/10/22 03:21:01;;;;;;;3.65;2.40;;;;;;;;;;4916928;29;20063;-37
2021/10/22 03:23:28;;;;;;;4.07;2.63;;;;;;;;;;4916789;29;20020;-37
2021/10/22 03:25:54;;;;;;;3.03;2.30;;;;;;;;;;4916666;29;20047;-37
2021/10/22 03:28:19;;;;;;;16.95;3.63;;;;;;;;;;4916930;29;20487;-37
2021/10/22 03:30:46;;;;;;;3.25;2.67;;;;;;;;;;4916646;29;20390;-37
2021/10/22 03:33:12;;;;;;;4.80;3.42;;;;;;;;;;4916405;29;20056;-37
2021/10/22 03:35:37;;;;;;;4.68;2.90;;;;;;;;;;4916725;29;20032;-37
2021/10/22 03:38:04;;;;;;;4.93;3.42;;;;;;;;;;4916396;29;20451;-37
2021/10/22 03:40:30;;;;;;;5.85;3.15;;;;;;;;;;4916726;29;20089;-37
2021/10/22 03:42:56;;;;;;;7.95;3.10;;;;;;;;;;4916339;29;20024;-37
2021/10/22 03:45:22;;;;;;;6.90;3.25;;;;;;;;;;4916590;29;20422;-40
2021/10/22 03:47:47;;;;;;;6.05;3.28;;;;;;;;;;4916450;29;20077;-37
2021/10/22 03:50:17;;;;;;;3.50;3.03;;;;;;;;;;4916299;29;20119;-37
2021/10/22 03:52:43;;;;;;;8.40;3.38;;;;;;;;;;4916078;29;20084;-37
2021/10/22 03:55:09;;;;;;;26.60;3.53;;;;;;;;;;4916241;29;20032;-37
2021/10/22 03:57:34;;;;;;;7.70;3.35;;;;;;;;;;4916205;29;20036;-37
2021/10/22 04:00:01;;;;;;;5.72;3.38;;;;;;;;;;4916256;29;20420;-37
2021/10/22 04:02:26;;;;;;;7.75;3.60;;;;;;;;;;4916060;29;20043;-37
2021/10/22 04:04:52;;;;;;;6.30;3.35;;;;;;;;;;4915749;29;20020;-37
2021/10/22 04:07:18;;;;;;;6.97;3.40;;;;;;;;;;4916043;29;20024;-37
2021/10/22 04:09:43;;;;;;;5.53;3.45;;;;;;;;;;4915864;29;20123;-36
2021/10/22 04:12:08;;;;;;;5.70;3.50;;;;;;;;;;4915865;29;20024;-37
2021/10/22 04:14:34;;;;;;;3.35;2.78;;;;;;;;;;4915816;29;20028;-38
2021/10/22 04:17:00;;;;;;;5.32;3.70;;;;;;;;;;4915649;29;20388;-37
2021/10/22 04:19:25;;;;;;;7.65;4.07;;;;;;;;;;4914548;29;20096;-37
2021/10/22 04:21:51;;;;;;;6.15;3.50;;;;;;;;;;4914505;29;20028;-37
2021/10/22 04:24:18;;;;;;;5.03;3.53;;;;;;;;;;4915668;29;20134;-37
2021/10/22 04:26:44;;;;;;;4.88;3.50;;;;;;;;;;4915519;29;20032;-37
2021/10/22 04:29:09;;;;;;;12.50;6.82;;;;;;;;;;4915626;29;20062;-38
2021/10/22 04:31:35;;;;;;;12.80;5.60;;;;;;;;;;4930212;29;20036;-37
2021/10/22 04:34:00;;;;;;;7.53;4.60;;;;;;;;;;4915290;29;20051;-37
2021/10/22 04:36:26;;;;;;;15.05;6.03;;;;;;;;;;4915437;29;20036;-38
2021/10/22 04:41:35;;;;;;;20.30;6.78;;;;;;;;;;4915373;29;20039;-37
2021/10/22 04:44:01;;;;;;;17.58;5.35;;;;;;;;;;4914121;29;20020;-37
2021/10/22 04:46:26;;;;;;;6.57;4.10;;;;;;;;;;4915235;29;20036;-37
2021/10/22 04:48:51;;;;;;;12.27;5.80;;;;;;;;;;4915523;29;20031;-37
2021/10/22 04:51:17;;;;;;;7.90;4.50;;;;;;;;;;4929944;29;20039;-37
2021/10/22 04:53:42;;;;;;;10.35;4.88;;;;;;;;;;4915105;29;20072;-37
2021/10/22 04:56:08;;;;;;;8.80;4.30;;;;;;;;;;4915526;29;20103;-37
2021/10/22 04:58:34;;;;;;;11.40;5.63;;;;;;;;;;4915474;29;20399;-37
2021/10/22 05:01:00;;;;;;;8.23;3.60;;;;;;;;;;4915376;29;20546;-37
2021/10/22 05:03:26;;;;;;;10.00;5.30;;;;;;;;;;4915491;29;20048;-37
2021/10/22 05:05:51;;;;;;;7.93;4.68;;;;;;;;;;4915269;29;20518;-37
2021/10/22 05:08:17;;;;;;;11.38;5.43;;;;;;;;;;4915125;29;20032;-37
2021/10/22 05:10:42;;;;;;;10.27;5.35;;;;;;;;;;4915213;29;20061;-37
2021/10/22 05:13:08;;;;;;;9.20;5.13;;;;;;;;;;4915083;29;20089;-37
2021/10/22 05:15:33;;;;;;;9.88;4.68;;;;;;;;;;4914103;29;20127;-38
2021/10/22 05:17:58;;;;;;;9.18;4.82;;;;;;;;;;4914891;29;20036;-44
2021/10/22 05:20:24;;;;;;;11.48;6.70;;;;;;;;;;4915067;29;20037;-37
2021/10/22 05:22:50;;;;;;;14.27;6.18;;;;;;;;;;4915114;29;20024;-37
2021/10/22 05:25:17;;;;;;;16.38;6.55;;;;;;;;;;4916079;29;20035;-37
2021/10/22 05:27:42;;;;;;;9.15;5.53;;;;;;;;;;4918946;29;20100;-37
2021/10/22 05:30:08;;;;;;;12.80;5.53;;;;;;;;;;4918811;29;20069;-37
2021/10/22 05:32:33;;;;;;;12.20;5.15;;;;;;;;;;4918874;29;20043;-37
2021/10/22 05:34:59;;;;;;;8.60;5.22;;;;;;;;;;4918588;29;20484;-37
2021/10/22 05:37:24;;;;;;;7.97;4.30;;;;;;;;;;4918467;29;20048;-37
2021/10/22 05:39:50;;;;;;;7.78;5.35;;;;;;;;;;4918864;29;20071;-37
2021/10/22 05:42:15;;;;;;;11.20;4.55;;;;;;;;;;4918641;29;20391;-37
2021/10/22 05:44:41;;;;;;;16.70;5.68;;;;;;;;;;4918772;29;20089;-37
2021/10/22 05:47:06;;;;;;;12.30;6.90;;;;;;;;;;4918504;29;20080;-37
2021/10/22 05:49:32;;;;;;;10.52;5.05;;;;;;;;;;4918428;29;20039;-37
2021/10/22 05:51:57;;;;;;;12.68;5.55;;;;;;;;;;4918400;29;20107;-37
2021/10/22 05:54:22;;;;;;;12.25;6.15;;;;;;;;;;4918402;29;20040;-37
2021/10/22 05:56:49;;;;;;;10.55;5.60;;;;;;;;;;4918428;29;20027;-37
2021/10/22 05:59:15;;;;;;;13.13;6.18;;;;;;;;;;4918322;29;20036;-37
2021/10/22 06:01:40;;;;;;;11.93;6.05;;;;;;;;;;4918304;29;20035;-37
2021/10/22 06:04:05;;;;;;;9.30;5.30;;;;;;;;;;4918173;29;20043;-37
2021/10/22 06:06:31;;;;;;;9.55;4.82;;;;;;;;;;4918121;29;20031;-37
2021/10/22 06:08:59;;;;;;;10.05;5.82;;;;;;;;;;4918000;29;20068;-37
2021/10/22 06:11:24;;;;;;;9.77;5.35;;;;;;;;;;4918145;29;20032;-37
2021/10/22 06:13:50;;;;;;;10.60;5.93;;;;;;;;;;4918158;29;20032;-37
2021/10/22 06:16:15;;;;;;;7.32;4.90;;;;;;;;;;4918261;29;20523;-37
2021/10/22 06:18:48;;;;;;;11.75;5.18;;;;;;;;;;4918214;29;20476;-37
2021/10/22 06:21:28;;;;;;;10.07;5.20;;;;;;;;;;4918081;29;20036;-37
2021/10/22 06:23:56;;;;;;;8.52;5.18;;;;;;;;;;4917867;29;20056;-37
2021/10/22 06:26:22;;;;;;;12.15;6.10;;;;;;;;;;4917670;29;20463;-37
2021/10/22 06:28:48;;;;;;;7.97;5.38;;;;;;;;;;4917965;29;20072;-37
2021/10/22 06:31:14;;;;;;;8.32;4.65;;;;;;;;;;4917743;29;20451;-37
2021/10/22 06:33:40;;;;;;;7.70;5.00;;;;;;;;;;4917520;29;20068;-36
2021/10/22 06:36:06;;;;;;;8.93;5.15;;;;;;;;;;4917384;29;20145;-37
2021/10/22 06:38:32;;;;;;;11.20;6.47;;;;;;;;;;4917517;29;20032;-37
2021/10/22 06:40:58;;;;;;;8.70;5.22;;;;;;;;;;4917498;29;20012;-37
2021/10/22 06:43:23;;;;;;;9.15;5.00;;;;;;;;;;4917519;29;20084;-38
2021/10/22 06:45:49;;;;;;;9.57;5.70;;;;;;;;;;4917309;29;20026;-37
2021/10/22 06:48:15;;;;;;;12.00;5.72;;;;;;;;;;4917478;29;20036;-37
2021/10/22 06:50:41;;;;;;;10.50;5.97;;;;;;;;;;4917283;29;20030;-37
2021/10/22 06:53:07;;;;;;;11.18;5.38;;;;;;;;;;4917352;29;20028;-37
2021/10/22 06:55:33;;;;;;;11.52;5.97;;;;;;;;;;4917295;29;20024;-37
2021/10/22 06:57:59;;;;;;;10.20;5.05;;;;;;;;;;4917161;29;20040;-36
2021/10/22 07:00:26;;;;;;;10.38;6.28;;;;;;;;;;4917261;29;20028;-37
2021/10/22 07:02:53;;;;;;;12.27;5.68;;;;;;;;;;4915812;29;20463;-37
2021/10/22 07:08:04;;;;;;;14.27;5.93;;;;;;;;;;4917072;29;20050;-37
2021/10/22 07:10:30;;;;;;;10.57;6.07;;;;;;;;;;4917078;29;20020;-37
2021/10/22 07:12:57;;;;;;;11.18;6.05;;;;;;;;;;4915792;29;20114;-37
2021/10/22 07:15:22;;;;;;;11.48;5.80;;;;;;;;;;4917030;29;20028;-37
2021/10/22 07:17:48;;;;;;;12.85;6.10;;;;;;;;;;4916787;29;20084;-37
2021/10/22 07:20:14;;;;;;;11.77;5.78;;;;;;;;;;4915737;29;20400;-37
2021/10/22 07:25:15;;;;;;;9.07;5.72;;;;;;;;;;4916946;29;20032;-37
2021/10/22 07:27:41;;;;;;;10.68;4.68;;;;;;;;;;4917056;29;20058;-36
2021/10/22 07:30:07;;;;;;;11.45;5.95;;;;;;;;;;4916537;29;20055;-37
2021/10/22 07:32:33;;;;;;;9.65;5.65;;;;;;;;;;4916564;29;20623;-37
2021/10/22 07:34:59;;;;;;;11.27;6.03;;;;;;;;;;4916843;29;20111;-37
2021/10/22 07:37:24;;;;;;;15.48;5.70;;;;;;;;;;4916731;29;20076;-37
2021/10/22 07:39:50;;;;;;;12.43;5.78;;;;;;;;;;4916470;29;20387;-37
2021/10/22 07:42:15;;;;;;;8.70;5.03;;;;;;;;;;4916490;29;20036;-37
2021/10/22 07:44:41;;;;;;;7.30;4.65;;;;;;;;;;4916369;29;20070;-37
2021/10/22 07:47:07;;;;;;;12.93;6.07;;;;;;;;;;4916261;29;20164;-36
2021/10/22 07:49:32;;;;;;;5.65;4.47;;;;;;;;;;4915670;29;20043;-37
2021/10/22 07:51:59;;;;;;;12.15;4.78;;;;;;;;;;4916198;29;20020;-37
2021/10/22 07:54:24;;;;;;;9.15;4.95;;;;;;;;;;4916269;29;20104;-37
2021/10/22 07:56:50;;;;;;;7.32;4.57;;;;;;;;;;4916245;29;20024;-37
2021/10/22 07:59:15;;;;;;;9.38;4.72;;;;;;;;;;4916217;29;20175;-37
2021/10/22 08:01:43;;;;;;;8.30;4.10;;;;;;;;;;4916059;29;20102;-37
2021/10/22 08:04:09;;;;;;;7.57;4.22;;;;;;;;;;4915940;29;20039;-37
2021/10/22 08:06:36;;;;;;;8.40;4.47;;;;;;;;;;4916177;29;20028;-38
2021/10/22 08:09:02;;;;;;;8.60;4.97;;;;;;;;;;4915909;29;20062;-36
2021/10/22 08:11:27;;;;;;;8.20;4.53;;;;;;;;;;4915973;29;20028;-37
2021/10/22 08:13:53;;;;;;;7.88;4.10;;;;;;;;;;4915775;29;20066;-37
2021/10/22 08:16:19;;;;;;;7.75;4.82;;;;;;;;;;4916080;29;20024;-37
2021/10/22 08:18:44;;;;;;;7.00;5.03;;;;;;;;;;4915757;29;20465;-37
2021/10/22 08:23:42;;;;;;;10.38;5.18;;;;;;;;;;4915769;29;20028;-37
2021/10/22 08:26:07;;;;;;;9.93;4.88;;;;;;;;;;4915837;29;20383;-37
2021/10/22 08:28:33;;;;;;;11.02;4.70;;;;;;;;;;4915642;29;20124;-36
2021/10/22 08:30:58;;;;;;;10.25;4.85;;;;;;;;;;4915640;29;20026;-37
2021/10/22 08:33:25;;;;;;;9.77;5.20;;;;;;;;;;4915513;29;20052;-37
2021/10/22 08:35:50;;;;;;;7.53;5.32;;;;;;;;;;4915511;29;20025;-37
2021/10/22 08:38:16;;;;;;;9.20;4.85;;;;;;;;;;4915699;29;20051;-37
2021/10/22 08:40:42;;;;;;;10.18;5.30;;;;;;;;;;4915552;29;20063;-37
2021/10/22 08:43:07;;;;;;;9.52;5.18;;;;;;;;;;4915349;29;20036;-36
2021/10/22 08:45:33;;;;;;;7.68;4.45;;;;;;;;;;4915429;29;20144;-37
2021/10/22 08:48:01;;;;;;;7.70;4.68;;;;;;;;;;4915442;29;20036;-36
2021/10/22 08:50:26;;;;;;;7.10;4.93;;;;;;;;;;4915370;29;20356;-37
2021/10/22 08:52:52;;;;;;;8.40;5.20;;;;;;;;;;4915259;29;20025;-37
2021/10/22 08:55:18;;;;;;;7.72;4.78;;;;;;;;;;4915303;29;20479;-37
2021/10/22 08:57:44;;;;;;;8.23;5.15;;;;;;;;;;4915118;29;20044;-37
2021/10/22 09:00:11;;;;;;;6.97;5.00;;;;;;;;;;4914291;29;20031;-37
2021/10/22 09:02:37;;;;;;;7.95;4.68;;;;;;;;;;4915252;29;20040;-42
2021/10/22 09:05:11;;;;;;;5.25;3.83;;;;;;;;;;4915108;29;20029;-37
2021/10/22 09:07:46;;;;;;;8.38;4.28;;;;;;;;;;4915208;29;20039;-37
2021/10/22 09:10:18;;;;;;;5.97;3.72;;;;;;;;;;4915287;29;20036;-37
2021/10/22 09:12:50;;;;;;;7.18;3.90;;;;;;;;;;4915232;29;20472;-42
2021/10/22 09:15:23;;;;;;;8.85;4.07;;;;;;;;;;4915099;29;20032;-37
2021/10/22 09:17:49;;;;;;;11.10;4.03;;;;;;;;;;4915165;29;20403;-37
2021/10/22 09:20:15;;;;;;;12.52;5.22;;;;;;;;;;4915291;29;20032;-37
2021/10/22 09:22:46;;;;;;;9.52;4.60;;;;;;;;;;4915108;29;20491;-37
2021/10/22 09:25:12;;;;;;;7.93;4.22;;;;;;;;;;4914807;29;20043;-37
2021/10/22 09:27:40;;;;;;;6.32;4.78;;;;;;;;;;4915085;29;20036;-37
2021/10/22 09:30:08;;;;;;;11.18;5.75;;;;;;;;;;4914908;29;20577;-37
2021/10/22 09:32:34;;;;;;;6.28;4.25;;;;;;;;;;4915033;29;20437;-37
2021/10/22 09:34:59;;;;;;;7.78;4.72;;;;;;;;;;4914878;29;20040;-37
2021/10/22 09:37:34;;;;;;;7.90;4.63;;;;;;;;;;4914751;29;20040;-37
2021/10/22 09:40:00;;;;;;;11.70;4.90;;;;;;;;;;4914769;29;20029;-37
2021/10/22 09:42:26;;;;;;;7.53;5.55;;;;;;;;;;4914867;29;20028;-37
2021/10/22 09:44:51;;;;;;;10.50;5.35;;;;;;;;;;4914692;29;20472;-38
2021/10/22 09:47:20;;;;;;;12.73;6.15;;;;;;;;;;4915012;29;20091;-39
2021/10/22 09:49:46;;;;;;;13.35;5.95;;;;;;;;;;4914791;29;20052;-37
2021/10/22 09:52:12;;;;;;;19.65;8.15;;;;;;;;;;4915040;29;20478;-37
2021/10/22 09:54:38;;;;;;;18.77;6.75;;;;;;;;;;4914639;29;20447;-37
2021/10/22 09:57:05;;;;;;;12.07;5.88;;;;;;;;;;4914604;29;20056;-37
2021/10/22 09:59:31;;;;;;;24.85;7.43;;;;;;;;;;4914657;29;20043;-37
2021/10/22 10:01:57;;;;;;;11.23;5.40;;;;;;;;;;4914594;29;20078;-36
2021/10/22 10:04:24;;;;;;;15.32;5.70;;;;;;;;;;4914786;29;20613;-38
2021/10/22 10:06:50;;;;;;;14.07;4.30;;;;;;;;;;4914694;29;20035;-38
2021/10/22 10:09:17;;;;;;;10.90;4.95;;;;;;;;;;4914573;29;20039;-37
2021/10/22 10:11:43;;;;;;;9.27;5.18;;;;;;;;;;4916425;29;20110;-37
2021/10/22 10:14:11;;;;;;;9.82;5.30;;;;;;;;;;4917915;29;20115;-37
2021/10/22 10:16:37;;;;;;;10.43;5.25;;;;;;;;;;4918273;29;20396;-37
2021/10/22 10:19:06;;;;;;;12.88;5.60;;;;;;;;;;4917908;29;20048;-37
2021/10/22 10:21:38;;;;;;;10.13;5.65;;;;;;;;;;4917989;29;20028;-37
2021/10/22 10:24:05;;;;;;;10.35;4.97;;;;;;;;;;4918100;29;20036;-37
2021/10/22 10:26:32;;;;;;;12.55;6.32;;;;;;;;;;4917847;29;20047;-37
2021/10/22 10:28:58;;;;;;;8.93;4.95;;;;;;;;;;4917736;29;20036;-37
2021/10/22 10:31:35;;;;;;;12.18;5.53;;;;;;;;;;4917764;29;20608;-36
2021/10/22 10:34:01;;;;;;;8.70;4.80;;;;;;;;;;4917508;29;20083;-37
2021/10/22 10:36:46;;;;;;;10.45;5.50;;;;;;;;;;4917597;29;20167;-37
2021/10/22 10:39:12;;;;;;;8.45;4.80;;;;;;;;;;4917554;29;20052;-39
2021/10/22 10:41:38;;;;;;;7.50;5.28;;;;;;;;;;4917541;29;20069;-36
2021/10/22 10:44:21;;;;;;;8.75;4.57;;;;;;;;;;4917491;29;20129;-37
2021/10/22 10:46:47;;;;;;;9.18;4.72;;;;;;;;;;4917501;29;20047;-37
2021/10/22 10:49:32;;;;;;;6.88;4.05;;;;;;;;;;4916279;29;20016;-37
2021/10/22 10:51:58;;;;;;;11.75;5.00;;;;;;;;;;4917255;29;20032;-37
2021/10/22 10:54:27;;;;;;;7.15;4.80;;;;;;;;;;4917335;29;20039;-37
2021/10/22 10:56:52;;;;;;;8.30;4.85;;;;;;;;;;4917047;29;20065;-37
2021/10/22 10:59:38;;;;;;;7.20;4.28;;;;;;;;;;4917572;29;20032;-37
2021/10/22 11:02:03;;;;;;;9.25;4.88;;;;;;;;;;4915947;29;20024;-37
2021/10/22 11:04:48;;;;;;;7.82;4.47;;;;;;;;;;4917458;29;20035;-37
2021/10/22 11:07:31;;;;;;;9.00;4.78;;;;;;;;;;4915932;29;20047;-37
2021/10/22 11:09:57;;;;;;;12.43;5.07;;;;;;;;;;4917229;29;20043;-37
2021/10/22 11:12:22;;;;;;;8.35;5.25;;;;;;;;;;4917295;29;20032;-37
2021/10/22 11:14:50;;;;;;;9.02;5.88;;;;;;;;;;4916994;29;20052;-36
2021/10/22 11:17:24;;;;;;;8.20;4.78;;;;;;;;;;4917151;29;20036;-37
2021/10/22 11:19:51;;;;;;;10.27;5.63;;;;;;;;;;4917228;29;20083;-37
2021/10/22 11:22:25;;;;;;;9.85;5.65;;;;;;;;;;4916435;29;20032;-37
2021/10/22 11:24:51;;;;;;;12.98;5.93;;;;;;;;;;4916463;29;20047;-37
2021/10/22 11:27:17;;;;;;;8.95;5.65;;;;;;;;;;4916631;29;20027;-37
2021/10/22 11:29:47;;;;;;;10.50;6.07;;;;;;;;;;4917042;29;20024;-37
2021/10/22 11:32:14;;;;;;;9.25;5.32;;;;;;;;;;4916527;29;20509;-37
2021/10/22 11:34:42;;;;;;;7.50;5.10;;;;;;;;;;4916413;29;20079;-36
2021/10/22 11:37:09;;;;;;;9.05;5.53;;;;;;;;;;4916433;29;20116;-37
2021/10/22 11:39:39;;;;;;;8.02;4.93;;;;;;;;;;4916646;29;20052;-37
2021/10/22 11:42:08;;;;;;;8.70;5.50;;;;;;;;;;4916414;29;20028;-36
2021/10/22 11:44:38;;;;;;;11.82;5.35;;;;;;;;;;4916399;29;20425;-37
2021/10/22 11:47:05;;;;;;;11.80;5.97;;;;;;;;;;4916198;29;20036;-37
2021/10/22 11:49:36;;;;;;;9.55;6.00;;;;;;;;;;4916594;29;20020;-37
2021/10/22 11:52:02;;;;;;;12.43;6.43;;;;;;;;;;4916319;29;20531;-37
2021/10/22 11:54:34;;;;;;;7.60;5.15;;;;;;;;;;4914951;29;20080;-37
2021/10/22 11:57:01;;;;;;;11.02;5.60;;;;;;;;;;4916310;29;20040;-37
2021/10/22 11:59:27;;;;;;;10.75;5.47;;;;;;;;;;4915259;29;20645;-37
2021/10/22 12:01:52;;;;;;;10.35;5.68;;;;;;;;;;4915963;29;20024;-37
2021/10/22 12:04:25;;;;;;;8.32;5.85;;;;;;;;;;4916081;29;20108;-37
2021/10/22 12:07:07;;;;;;;9.63;6.10;;;;;;;;;;4916133;29;20047;-37
2021/10/22 12:09:35;;;;;;;10.25;6.45;;;;;;;;;;4916017;29;20035;-36
2021/10/22 12:12:08;;;;;;;9.73;6.25;;;;;;;;;;4916086;29;20051;-36
2021/10/22 12:14:35;;;;;;;8.52;5.25;;;;;;;;;;4915973;29;20044;-40
2021/10/22 12:17:02;;;;;;;8.77;5.60;;;;;;;;;;4915601;29;20049;-36
2021/10/22 12:19:28;;;;;;;8.90;6.15;;;;;;;;;;4916344;29;20111;-36
2021/10/22 12:21:53;;;;;;;9.35;5.75;;;;;;;;;;4915716;29;20585;-37
2021/10/22 12:24:19;;;;;;;13.55;6.55;;;;;;;;;;4915734;29;20040;-37
2021/10/22 12:26:45;;;;;;;7.97;5.45;;;;;;;;;;4915747;29;20027;-37
2021/10/22 12:29:11;;;;;;;9.20;5.82;;;;;;;;;;4915559;29;20032;-37
2021/10/22 12:31:42;;;;;;;9.95;6.32;;;;;;;;;;4915681;29;20024;-37
2021/10/22 12:34:15;;;;;;;11.00;6.57;;;;;;;;;;4915121;29;20058;-36
2021/10/22 12:36:44;;;;;;;10.88;6.70;;;;;;;;;;4915509;29;20050;-37
2021/10/22 12:39:23;;;;;;;12.13;6.43;;;;;;;;;;4915664;29;20035;-36
2021/10/22 12:41:49;;;;;;;8.95;6.18;;;;;;;;;;4915452;29;20499;-37
2021/10/22 12:44:15;;;;;;;9.90;6.38;;;;;;;;;;4915269;29;20072;-37
2021/10/22 12:47:00;;;;;;;9.27;6.75;;;;;;;;;;4914133;29;20047;-37
2021/10/22 12:49:27;;;;;;;11.73;5.95;;;;;;;;;;4914921;29;20044;-37
2021/10/22 12:51:56;;;;;;;9.63;5.32;;;;;;;;;;4915460;29;20039;-37
2021/10/22 12:54:22;;;;;;;8.25;5.40;;;;;;;;;;4915552;29;20102;-37
2021/10/22 12:56:58;;;;;;;11.70;5.85;;;;;;;;;;4915407;29;20547;-37
2021/10/22 12:59:25;;;;;;;11.02;5.68;;;;;;;;;;4915498;29;20127;-37
2021/10/22 13:01:53;;;;;;;12.00;5.78;;;;;;;;;;4915124;29;20018;-38
2021/10/22 13:04:22;;;;;;;9.38;5.75;;;;;;;;;;4915163;29;20036;-37
2021/10/22 13:10:06;;;;;;;8.75;5.60;;;;;;;;;;4915237;29;20071;-36
2021/10/22 13:22:51;;;;;;;12.13;7.88;;;;;;;;;;4915004;29;20036;-38
2021/10/22 13:25:17;;;;;;;10.90;6.05;;;;;;;;;;4915085;29;20054;-37
2021/10/22 13:27:42;;;;;;;11.00;6.32;;;;;;;;;;4914975;29;20391;-38
2021/10/22 13:30:13;;;;;;;7.72;4.85;;;;;;;;;;4929365;29;20036;-37
2021/10/22 13:32:39;;;;;;;10.70;5.55;;;;;;;;;;4915050;29;20058;-37
2021/10/22 13:35:05;;;;;;;7.05;5.10;;;;;;;;;;4914686;29;20495;-37
2021/10/22 13:37:31;;;;;;;17.15;6.03;;;;;;;;;;4914830;29;20050;-37
2021/10/22 13:40:00;;;;;;;9.55;5.28;;;;;;;;;;4914841;29;20024;-38
2021/10/22 13:42:26;;;;;;;11.23;5.50;;;;;;;;;;4914820;29;20028;-38
2021/10/22 13:44:52;;;;;;;9.40;5.45;;;;;;;;;;4914801;29;20072;-37
2021/10/22 13:47:17;;;;;;;8.00;5.45;;;;;;;;;;4917200;29;20036;-37
2021/10/22 13:49:43;;;;;;;13.20;6.38;;;;;;;;;;4918492;29;20027;-37
2021/10/22 13:52:09;;;;;;;8.00;5.95;;;;;;;;;;4918457;29;20062;-37
2021/10/22 13:54:34;;;;;;;9.07;6.28;;;;;;;;;;4918330;29;20408;-37
2021/10/22 13:57:02;;;;;;;11.40;6.25;;;;;;;;;;4918204;29;20395;-36
2021/10/22 13:59:27;;;;;;;11.80;6.38;;;;;;;;;;4918396;29;20030;-37
2021/10/22 14:01:53;;;;;;;12.20;6.18;;;;;;;;;;4918307;29;20318;-37
2021/10/22 14:04:19;;;;;;;10.05;6.13;;;;;;;;;;4917128;29;20452;-36
2021/10/22 14:06:45;;;;;;;11.80;5.80;;;;;;;;;;4918147;29;20555;-37
2021/10/22 14:09:10;;;;;;;13.73;6.40;;;;;;;;;;4918115;29;20107;-37
2021/10/22 14:12:03;;;;;;;9.13;5.75;;;;;;;;;;4918141;29;20126;-36
2021/10/22 14:17:00;;;;;;;10.88;6.35;;;;;;;;;;4916816;29;20440;-37
2021/10/22 14:25:05;;;;;;;12.13;4.82;;;;;;;;;;4917863;29;20383;-37
2021/10/22 14:30:07;;;;;;;7.22;4.57;;;;;;;;;;4916541;29;20040;-37
2021/10/22 14:32:33;;;;;;;6.57;4.53;;;;;;;;;;4917835;29;20024;-38
2021/10/22 14:34:59;;;;;;;8.98;5.20;;;;;;;;;;4898733;29;20036;-37
2021/10/22 14:37:26;;;;;;;8.85;6.05;;;;;;;;;;4898534;29;20048;-37
2021/10/22 14:39:51;;;;;;;9.98;5.70;;;;;;;;;;4898842;29;20033;-37
2021/10/22 14:42:17;;;;;;;9.20;4.95;;;;;;;;;;4898950;29;20035;-37
2021/10/22 14:44:43;;;;;;;7.10;5.15;;;;;;;;;;4898850;29;20836;-37
2021/10/22 14:47:21;;;;;;;8.85;5.78;;;;;;;;;;4898660;29;20043;-36
2021/10/22 14:49:49;;;;;;;9.13;5.13;;;;;;;;;;4898614;29;20048;-37
2021/10/22 14:52:24;;;;;;;10.93;5.78;;;;;;;;;;4898812;29;20685;-36
2021/10/22 14:54:56;;;;;;;10.48;5.88;;;;;;;;;;4898439;29;20033;-37
2021/10/22 14:57:21;;;;;;;8.77;5.25;;;;;;;;;;4898297;29;20480;-37
2021/10/22 14:59:47;;;;;;;11.60;5.65;;;;;;;;;;4897329;29;20112;-38
2021/10/22 15:02:16;;;;;;;11.45;5.45;;;;;;;;;;4898371;29;20392;-37
2021/10/22 15:04:42;;;;;;;7.63;5.68;;;;;;;;;;4898339;29;20024;-37
2021/10/22 15:07:08;;;;;;;14.27;6.32;;;;;;;;;;4898199;29;20078;-37
2021/10/22 15:09:33;;;;;;;6.47;4.95;;;;;;;;;;4898374;29;20056;-37
2021/10/22 15:12:01;;;;;;;8.98;5.55;;;;;;;;;;4898164;29;20063;-37